Time;durP1;ratioP1;P1;durP2;ratioP2;P2;SDS_P1;SDS_P2;PMS_P1;PMS_P2;Temp;Humidity;BMP_temperature;BMP_pressure;BME280_temperature;BME280_humidity;BME280_pressure;Samples;Min_cycle;Max_cycle;Signal;HPM_P1;HPM_P2
2021/05/20 00:01:31;;;;;;;15.33;9.23;;;10.20;99.90;;;;;;5041728;28;20233;-71
2021/05/20 00:03:57;;;;;;;13.23;9.23;;;10.10;99.90;;;;;;5041260;28;20233;-71
2021/05/20 00:06:25;;;;;;;11.80;8.70;;;10.10;99.90;;;;;;5042720;28;20576;-71
2021/05/20 00:08:51;;;;;;;12.23;8.50;;;10.00;99.90;;;;;;5047746;28;20201;-71
2021/05/20 00:11:18;;;;;;;12.23;8.83;;;9.90;99.90;;;;;;5047475;28;20621;-71
2021/05/20 00:13:44;;;;;;;12.73;8.57;;;9.70;99.90;;;;;;5039586;28;20204;-71
2021/05/20 00:16:10;;;;;;;12.67;8.40;;;9.70;99.90;;;;;;5048091;28;20244;-71
2021/05/20 00:18:38;;;;;;;12.40;8.93;;;9.60;99.90;;;;;;5047575;28;20242;-70
2021/05/20 00:21:05;;;;;;;11.40;8.47;;;9.60;99.90;;;;;;5044610;28;20346;-71
2021/05/20 00:23:31;;;;;;;14.17;8.40;;;9.50;99.90;;;;;;5041388;28;20846;-71
2021/05/20 00:25:57;;;;;;;12.83;8.60;;;9.40;99.90;;;;;;5038802;28;20204;-71
2021/05/20 00:38:39;;;;;;;12.90;9.23;;;9.30;99.90;;;;;;5032681;28;20201;-70
2021/05/20 00:41:08;;;;;;;16.07;8.97;;;9.10;99.90;;;;;;5048542;28;20227;-71
2021/05/20 00:43:34;;;;;;;13.37;9.47;;;9.00;99.90;;;;;;5052050;28;20240;-71
2021/05/20 00:46:01;;;;;;;15.40;9.37;;;9.00;99.90;;;;;;5051673;28;20195;-70
2021/05/20 00:48:27;;;;;;;13.57;9.50;;;9.00;99.90;;;;;;5048495;28;20208;-70
2021/05/20 00:50:54;;;;;;;13.33;9.30;;;9.00;99.90;;;;;;5045027;28;20198;-71
2021/05/20 00:53:20;;;;;;;12.77;9.10;;;9.00;99.90;;;;;;5051748;28;20626;-71
2021/05/20 00:55:50;;;;;;;12.43;8.87;;;9.00;99.90;;;;;;5051720;28;20582;-71
2021/05/20 00:58:17;;;;;;;14.47;9.97;;;8.90;99.90;;;;;;5051494;28;20210;-71
2021/05/20 01:00:44;;;;;;;14.43;9.53;;;8.90;99.90;;;;;;5051499;28;20226;-71
2021/05/20 01:03:10;;;;;;;13.43;8.80;;;8.90;99.90;;;;;;5052893;28;20222;-71
2021/05/20 01:05:37;;;;;;;14.83;9.30;;;8.80;99.90;;;;;;5071902;28;20206;-71
2021/05/20 01:08:04;;;;;;;13.47;9.47;;;8.70;99.90;;;;;;5071197;28;20198;-71
2021/05/20 01:10:30;;;;;;;12.37;8.23;;;8.60;99.90;;;;;;5071751;28;20251;-71
2021/05/20 01:12:58;;;;;;;13.33;8.97;;;8.60;99.90;;;;;;5071752;28;20688;-71
2021/05/20 01:15:26;;;;;;;13.37;8.87;;;8.60;99.90;;;;;;5070781;28;20198;-71
2021/05/20 01:17:55;;;;;;;13.57;9.90;;;8.60;99.90;;;;;;5071924;28;20252;-71
2021/05/20 01:20:24;;;;;;;13.80;8.60;;;8.70;99.90;;;;;;5070894;28;20686;-71
2021/05/20 01:22:51;;;;;;;12.27;8.57;;;8.60;99.90;;;;;;5071797;28;20465;-71
2021/05/20 01:25:17;;;;;;;12.93;8.90;;;8.50;99.90;;;;;;5071275;28;20313;-71
2021/05/20 01:27:46;;;;;;;11.87;8.33;;;8.50;99.90;;;;;;5071554;28;20243;-71
2021/05/20 01:30:13;;;;;;;12.87;8.43;;;8.60;99.90;;;;;;5071042;28;20551;-71
2021/05/20 01:32:40;;;;;;;13.87;9.03;;;8.70;99.90;;;;;;5071757;28;20255;-71
2021/05/20 01:35:07;;;;;;;14.10;9.17;;;8.70;99.90;;;;;;5063640;28;20198;-71
2021/05/20 01:37:35;;;;;;;12.70;8.77;;;8.70;99.90;;;;;;5075759;28;20203;-71
2021/05/20 01:40:01;;;;;;;14.43;8.87;;;8.50;99.90;;;;;;5074932;28;20310;-71
2021/05/20 01:42:28;;;;;;;12.57;8.50;;;8.50;99.90;;;;;;5075395;28;20202;-71
2021/05/20 01:44:54;;;;;;;13.87;8.57;;;8.50;99.90;;;;;;5075076;28;20285;-71
2021/05/20 01:47:21;;;;;;;14.43;9.10;;;8.40;99.90;;;;;;5075323;28;20202;-71
2021/05/20 01:49:52;;;;;;;13.93;9.13;;;8.50;99.90;;;;;;5074498;28;20202;-70
2021/05/20 01:52:19;;;;;;;13.67;8.80;;;8.40;99.90;;;;;;5073213;28;20210;-71
2021/05/20 01:54:47;;;;;;;16.30;9.73;;;8.40;99.90;;;;;;5074382;28;20663;-70
2021/05/20 01:57:13;;;;;;;14.50;9.93;;;8.40;99.90;;;;;;5074804;28;20202;-70
2021/05/20 01:59:40;;;;;;;14.30;9.93;;;8.40;99.90;;;;;;5074320;28;20211;-70
2021/05/20 02:02:06;;;;;;;15.13;9.13;;;8.40;99.90;;;;;;5067123;28;20202;-71
2021/05/20 02:04:32;;;;;;;14.23;9.53;;;8.40;99.90;;;;;;5061481;28;20202;-70
2021/05/20 02:06:59;;;;;;;14.57;8.97;;;8.40;99.90;;;;;;5055235;28;20207;-70
2021/05/20 02:09:25;;;;;;;14.77;9.57;;;8.30;99.90;;;;;;5054228;28;20195;-71
2021/05/20 02:11:52;;;;;;;17.40;9.13;;;8.30;99.90;;;;;;5051212;28;20209;-71
2021/05/20 02:14:19;;;;;;;13.93;9.40;;;8.20;99.90;;;;;;5048840;28;20225;-71
2021/05/20 02:16:45;;;;;;;14.30;9.00;;;8.00;99.90;;;;;;5044260;28;20199;-71
2021/05/20 02:19:12;;;;;;;15.10;9.83;;;7.90;99.90;;;;;;5048940;28;20207;-71
2021/05/20 02:21:38;;;;;;;14.63;9.77;;;8.00;99.90;;;;;;5053811;28;20202;-71
2021/05/20 02:24:06;;;;;;;16.50;10.10;;;8.10;99.90;;;;;;5044375;28;20210;-71
2021/05/20 02:26:32;;;;;;;15.17;10.00;;;8.10;99.90;;;;;;5053346;28;20195;-71
2021/05/20 02:28:59;;;;;;;13.83;9.20;;;8.10;99.90;;;;;;5051743;28;20573;-70
2021/05/20 02:31:26;;;;;;;16.30;10.40;;;8.10;99.90;;;;;;5052694;28;20248;-71
2021/05/20 02:33:52;;;;;;;15.47;9.57;;;8.10;99.90;;;;;;5054123;28;20634;-70
2021/05/20 02:36:18;;;;;;;14.77;9.00;;;8.10;99.90;;;;;;5043611;28;20211;-71
2021/05/20 02:38:45;;;;;;;16.30;10.00;;;8.20;99.90;;;;;;5047140;28;20227;-71
2021/05/20 02:41:11;;;;;;;15.33;9.33;;;8.10;99.90;;;;;;5050176;28;20681;-70
2021/05/20 02:43:38;;;;;;;13.33;9.30;;;8.00;99.90;;;;;;5042596;28;20207;-70
2021/05/20 02:46:05;;;;;;;15.93;10.30;;;8.10;99.90;;;;;;5053284;28;20209;-71
2021/05/20 02:48:31;;;;;;;14.23;9.57;;;8.00;99.90;;;;;;5051335;28;20207;-71
2021/05/20 02:50:57;;;;;;;14.60;9.87;;;7.90;99.90;;;;;;5051902;28;20195;-70
2021/05/20 02:53:24;;;;;;;15.67;9.67;;;7.80;99.90;;;;;;5053502;28;20625;-70
2021/05/20 02:55:50;;;;;;;15.87;10.23;;;7.70;99.90;;;;;;5050255;28;20645;-71
2021/05/20 02:58:19;;;;;;;16.03;9.00;;;7.90;99.90;;;;;;5052558;28;20203;-71
2021/05/20 03:00:46;;;;;;;15.63;9.67;;;7.80;99.90;;;;;;5045924;28;20207;-70
2021/05/20 03:03:14;;;;;;;15.17;9.77;;;7.70;99.90;;;;;;5049806;28;20231;-70
2021/05/20 03:05:41;;;;;;;15.57;9.70;;;7.80;99.90;;;;;;5053120;28;20653;-70
2021/05/20 03:08:09;;;;;;;16.80;9.83;;;7.80;99.90;;;;;;5052935;28;20576;-71
2021/05/20 03:10:35;;;;;;;16.37;10.30;;;7.80;99.90;;;;;;5051279;28;20583;-70
2021/05/20 03:13:02;;;;;;;15.30;10.17;;;7.70;99.90;;;;;;5051433;28;20206;-70
2021/05/20 03:15:29;;;;;;;17.83;11.03;;;7.70;99.90;;;;;;5051235;28;20202;-71
2021/05/20 03:17:55;;;;;;;15.30;10.17;;;7.80;99.90;;;;;;5037998;28;20200;-71
2021/05/20 03:20:22;;;;;;;16.03;10.63;;;7.70;99.90;;;;;;5052952;28;20292;-70
2021/05/20 03:22:49;;;;;;;17.33;10.97;;;7.70;99.90;;;;;;5050643;28;20199;-71
2021/05/20 03:25:17;;;;;;;16.87;10.67;;;7.70;99.90;;;;;;5041153;28;20210;-72
2021/05/20 03:27:43;;;;;;;16.77;11.27;;;7.80;99.90;;;;;;5048568;28;20199;-70
2021/05/20 03:30:11;;;;;;;17.10;10.40;;;7.80;99.90;;;;;;5050059;28;20215;-73
2021/05/20 03:32:37;;;;;;;17.30;10.57;;;7.80;99.90;;;;;;5045963;28;20210;-73
2021/05/20 03:35:05;;;;;;;16.40;10.87;;;7.80;99.90;;;;;;5047559;28;20207;-73
2021/05/20 03:37:34;;;;;;;19.80;11.50;;;7.80;99.90;;;;;;5051511;28;20217;-72
2021/05/20 03:40:00;;;;;;;18.57;11.47;;;7.80;99.90;;;;;;5050444;28;20218;-71
2021/05/20 03:42:27;;;;;;;17.70;11.20;;;7.90;99.90;;;;;;5051777;28;20244;-72
2021/05/20 03:44:53;;;;;;;20.17;12.70;;;7.90;99.90;;;;;;5049587;28;20214;-71
2021/05/20 03:47:20;;;;;;;17.83;11.83;;;8.00;99.90;;;;;;5048349;28;20214;-70
2021/05/20 03:49:46;;;;;;;18.17;10.90;;;8.10;99.90;;;;;;5049148;28;20211;-71
2021/05/20 03:52:13;;;;;;;18.37;11.43;;;8.10;99.90;;;;;;5044850;28;20210;-70
2021/05/20 03:54:42;;;;;;;21.77;14.20;;;8.30;99.90;;;;;;5042829;28;20194;-71
2021/05/20 03:57:09;;;;;;;22.20;14.07;;;8.50;99.90;;;;;;5042435;28;20206;-71
2021/05/20 03:59:35;;;;;;;19.73;12.80;;;9.30;99.90;;;;;;5040479;28;20845;-72
2021/05/20 04:02:02;;;;;;;18.47;11.23;;;9.80;99.90;;;;;;5044797;28;20628;-73
2021/05/20 04:04:28;;;;;;;17.10;10.60;;;10.20;99.90;;;;;;5042112;28;20288;-72
2021/05/20 04:06:55;;;;;;;18.07;10.53;;;10.40;99.90;;;;;;5046905;28;20191;-73
2021/05/20 04:09:21;;;;;;;16.80;10.70;;;9.80;99.90;;;;;;5048206;28;20207;-73
2021/05/20 04:11:49;;;;;;;16.60;10.53;;;9.90;99.90;;;;;;5051624;28;20238;-70
2021/05/20 04:14:15;;;;;;;17.93;11.57;;;9.70;99.90;;;;;;5051485;28;20236;-70
2021/05/20 04:16:41;;;;;;;18.90;10.67;;;9.90;99.90;;;;;;5049242;28;20209;-70
2021/05/20 04:19:08;;;;;;;15.93;10.93;;;9.70;99.90;;;;;;5049277;28;20207;-69
2021/05/20 04:21:34;;;;;;;16.97;11.33;;;10.00;99.90;;;;;;5051432;28;20223;-70
2021/05/20 04:24:01;;;;;;;16.77;11.20;;;10.00;99.90;;;;;;5050358;28;20214;-69
2021/05/20 04:26:27;;;;;;;15.47;10.93;;;10.10;99.90;;;;;;5047538;28;20470;-69
2021/05/20 04:28:55;;;;;;;14.97;10.77;;;10.10;99.90;;;;;;5051185;28;20203;-69
2021/05/20 04:31:21;;;;;;;17.17;11.63;;;10.00;99.90;;;;;;5049881;28;20718;-69
2021/05/20 04:33:48;;;;;;;18.30;10.83;;;10.60;99.90;;;;;;5048658;28;20228;-69
2021/05/20 04:36:14;;;;;;;15.10;10.47;;;10.60;99.90;;;;;;5050347;28;20227;-70
2021/05/20 04:38:41;;;;;;;20.20;11.40;;;10.40;99.90;;;;;;5050944;28;20238;-69
2021/05/20 04:41:08;;;;;;;15.70;11.00;;;10.40;99.90;;;;;;5048971;28;20227;-69
2021/05/20 04:43:34;;;;;;;17.50;11.20;;;10.20;99.90;;;;;;5050090;28;20199;-69
2021/05/20 04:46:01;;;;;;;15.77;10.53;;;10.10;99.90;;;;;;5049740;28;20199;-70
2021/05/20 04:48:28;;;;;;;16.47;11.03;;;9.90;99.90;;;;;;5048521;28;20279;-69
2021/05/20 04:50:56;;;;;;;16.70;11.37;;;9.90;99.90;;;;;;5046853;28;20716;-69
2021/05/20 04:53:23;;;;;;;18.20;11.53;;;10.20;99.90;;;;;;5043358;28;20704;-69
2021/05/20 04:55:50;;;;;;;15.67;10.90;;;10.40;99.90;;;;;;5032467;28;20258;-69
2021/05/20 04:58:17;;;;;;;17.77;12.17;;;10.20;99.90;;;;;;5047653;28;20207;-69
2021/05/20 05:00:43;;;;;;;17.80;11.77;;;9.90;99.90;;;;;;5039764;28;20324;-69
2021/05/20 05:03:10;;;;;;;17.63;11.63;;;9.90;99.90;;;;;;5047386;28;20249;-69
2021/05/20 05:05:36;;;;;;;19.80;12.47;;;9.70;99.90;;;;;;5050906;28;20648;-69
2021/05/20 05:08:03;;;;;;;19.50;12.93;;;9.90;99.90;;;;;;5051009;28;20209;-70
2021/05/20 05:10:29;;;;;;;32.77;23.83;;;9.90;99.90;;;;;;5054322;28;20566;-70
2021/05/20 05:12:56;;;;;;;24.60;16.97;;;9.70;99.90;;;;;;5053325;28;20202;-71
2021/05/20 05:15:22;;;;;;;20.23;12.90;;;9.90;99.90;;;;;;5044837;28;20195;-70
2021/05/20 05:17:49;;;;;;;20.70;12.43;;;10.00;99.90;;;;;;5051330;28;20211;-70
2021/05/20 05:20:16;;;;;;;20.70;13.57;;;10.00;99.90;;;;;;5048744;28;20727;-70
2021/05/20 05:22:42;;;;;;;18.70;12.33;;;10.10;99.90;;;;;;5051674;28;20244;-70
2021/05/20 05:25:09;;;;;;;20.27;12.90;;;10.20;99.90;;;;;;5047217;28;20609;-70
2021/05/20 05:27:36;;;;;;;18.73;12.40;;;11.10;99.90;;;;;;5042442;28;20252;-70
2021/05/20 05:30:03;;;;;;;19.60;13.17;;;11.10;99.90;;;;;;5050927;28;20325;-70
2021/05/20 05:32:29;;;;;;;20.77;13.70;;;10.80;99.90;;;;;;5048926;28;20215;-70
2021/05/20 05:34:55;;;;;;;19.13;12.20;;;10.70;99.90;;;;;;5052359;28;20265;-70
2021/05/20 05:37:23;;;;;;;19.40;13.27;;;11.10;99.90;;;;;;5041891;28;20302;-70
2021/05/20 05:39:49;;;;;;;18.73;13.13;;;13.00;99.90;;;;;;5048741;28;20226;-70
2021/05/20 05:42:15;;;;;;;18.53;12.07;;;13.20;99.90;;;;;;5047368;28;20733;-71
2021/05/20 05:44:42;;;;;;;17.83;12.30;;;12.90;99.90;;;;;;5049483;28;20607;-71
2021/05/20 05:47:08;;;;;;;15.57;10.97;;;13.50;99.90;;;;;;5047471;28;20213;-71
2021/05/20 05:49:40;;;;;;;16.13;11.37;;;12.80;99.90;;;;;;5049129;28;20562;-71
2021/05/20 05:52:08;;;;;;;16.77;11.63;;;12.10;99.90;;;;;;5048637;28;20206;-71
2021/05/20 05:54:36;;;;;;;18.03;12.43;;;11.40;99.90;;;;;;5037812;28;20206;-70
2021/05/20 05:57:03;;;;;;;17.73;12.10;;;11.50;99.90;;;;;;5041989;28;20261;-71
2021/05/20 05:59:29;;;;;;;20.37;12.70;;;11.30;99.90;;;;;;5047356;28;20715;-71
2021/05/20 06:01:55;;;;;;;17.60;11.80;;;11.40;99.90;;;;;;5040707;28;20206;-70
2021/05/20 06:04:22;;;;;;;17.77;11.90;;;11.50;99.90;;;;;;5046984;28;20254;-71
2021/05/20 06:06:48;;;;;;;18.50;12.03;;;11.50;99.90;;;;;;5043550;28;20214;-71
2021/05/20 06:09:14;;;;;;;19.37;12.50;;;11.60;99.90;;;;;;5043535;28;20201;-70
2021/05/20 06:11:43;;;;;;;19.30;12.93;;;11.50;99.90;;;;;;5046650;28;20568;-70
2021/05/20 06:14:10;;;;;;;18.97;12.90;;;11.60;99.90;;;;;;5046301;28;20653;-71
2021/05/20 06:16:40;;;;;;;20.97;14.13;;;11.40;99.90;;;;;;5043939;28;20202;-70
2021/05/20 06:19:07;;;;;;;21.90;13.67;;;11.30;99.90;;;;;;5047465;28;20611;-70
2021/05/20 06:21:33;;;;;;;19.37;13.60;;;11.20;99.90;;;;;;5044509;28;20590;-70
2021/05/20 06:24:00;;;;;;;20.77;13.63;;;11.40;99.90;;;;;;5046604;28;20200;-70
2021/05/20 06:26:26;;;;;;;20.43;13.40;;;11.50;99.90;;;;;;5047132;28;21005;-70
2021/05/20 06:28:54;;;;;;;19.87;13.07;;;11.70;99.90;;;;;;5050053;28;20741;-70
2021/05/20 06:31:21;;;;;;;21.33;14.63;;;11.70;99.90;;;;;;5050363;28;20322;-70
2021/05/20 06:33:48;;;;;;;21.80;14.83;;;11.80;99.90;;;;;;5050037;28;20199;-70
2021/05/20 06:36:14;;;;;;;22.87;15.60;;;11.90;99.90;;;;;;5047013;28;20544;-70
2021/05/20 06:38:41;;;;;;;20.37;13.87;;;12.00;99.90;;;;;;5042535;28;20669;-70
2021/05/20 06:41:09;;;;;;;19.47;13.43;;;11.80;99.90;;;;;;5045165;28;20745;-71
2021/05/20 06:43:36;;;;;;;19.87;13.83;;;11.90;99.90;;;;;;5045501;28;20566;-70
2021/05/20 06:46:04;;;;;;;19.60;13.53;;;12.00;99.90;;;;;;5044818;28;20207;-70
2021/05/20 06:48:30;;;;;;;24.10;14.23;;;12.00;99.90;;;;;;5049883;28;20199;-70
2021/05/20 06:50:57;;;;;;;20.97;14.00;;;12.30;99.90;;;;;;5043764;28;20201;-70
2021/05/20 06:53:25;;;;;;;21.53;14.30;;;12.40;99.90;;;;;;5047568;28;20249;-70
2021/05/20 06:55:56;;;;;;;21.90;14.73;;;12.20;99.90;;;;;;5048696;28;20572;-71
2021/05/20 07:01:07;;;;;;;21.97;13.87;;;12.00;99.90;;;;;;5048679;28;20289;-71
2021/05/20 07:03:34;;;;;;;20.87;14.80;;;12.50;99.90;;;;;;5045303;28;20264;-71
2021/05/20 07:06:00;;;;;;;24.00;16.07;;;12.10;99.90;;;;;;5047663;28;20356;-70
2021/05/20 07:08:27;;;;;;;20.00;14.63;;;12.30;99.90;;;;;;5040625;28;20204;-70
2021/05/20 07:10:54;;;;;;;21.30;14.43;;;12.30;99.90;;;;;;5046493;28;20224;-70
2021/05/20 07:13:21;;;;;;;21.30;15.07;;;12.60;99.90;;;;;;5045734;28;20260;-71
2021/05/20 07:15:47;;;;;;;21.47;15.13;;;12.50;99.90;;;;;;5053158;28;20702;-71
2021/05/20 07:18:15;;;;;;;20.70;14.60;;;12.50;99.90;;;;;;5052695;28;20499;-70
2021/05/20 07:20:41;;;;;;;21.13;14.87;;;12.70;99.90;;;;;;5053099;28;20318;-71
2021/05/20 07:23:12;;;;;;;20.70;14.67;;;12.90;99.90;;;;;;5053608;28;20253;-71
2021/05/20 07:25:38;;;;;;;21.87;14.53;;;12.90;99.90;;;;;;5053583;28;20249;-71
2021/05/20 07:28:05;;;;;;;19.97;14.13;;;13.00;99.90;;;;;;5053557;28;20235;-70
2021/05/20 07:30:32;;;;;;;21.67;14.27;;;13.10;99.90;;;;;;5053509;28;20203;-70
2021/05/20 07:32:58;;;;;;;19.17;13.53;;;13.10;99.90;;;;;;5053180;28;20211;-71
2021/05/20 07:35:26;;;;;;;18.93;12.77;;;12.90;99.90;;;;;;5052880;28;20282;-70
2021/05/20 07:37:52;;;;;;;20.87;13.37;;;13.00;99.90;;;;;;5052537;28;20195;-70
2021/05/20 07:40:19;;;;;;;16.93;12.33;;;13.00;99.90;;;;;;5053046;28;20228;-70
2021/05/20 07:42:46;;;;;;;16.90;11.53;;;13.30;99.90;;;;;;5052480;28;20199;-70
2021/05/20 07:45:13;;;;;;;17.53;11.37;;;13.10;99.90;;;;;;5052729;28;20199;-70
2021/05/20 07:47:41;;;;;;;19.50;11.73;;;13.20;99.90;;;;;;5053148;28;20207;-70
2021/05/20 07:50:09;;;;;;;17.20;12.00;;;13.20;99.90;;;;;;5052522;28;20201;-70
2021/05/20 07:52:37;;;;;;;16.10;11.70;;;13.00;99.90;;;;;;5033458;28;20203;-71
2021/05/20 07:55:04;;;;;;;14.03;9.87;;;12.90;99.90;;;;;;5039961;28;20198;-70
2021/05/20 07:57:30;;;;;;;14.97;10.10;;;13.20;99.90;;;;;;5049817;28;20199;-70
2021/05/20 07:59:57;;;;;;;16.07;10.00;;;13.30;99.90;;;;;;5049435;28;20219;-70
2021/05/20 08:02:33;;;;;;;13.17;9.33;;;13.30;99.90;;;;;;5053018;28;20340;-70
2021/05/20 08:05:03;;;;;;;13.43;9.10;;;13.50;99.90;;;;;;5038007;28;20221;-70
2021/05/20 08:07:35;;;;;;;14.30;9.30;;;13.60;99.90;;;;;;5052101;28;20199;-70
2021/05/20 08:10:25;;;;;;;13.50;9.00;;;13.60;99.90;;;;;;5043222;28;20732;-70
2021/05/20 08:12:52;;;;;;;11.43;7.67;;;13.60;99.90;;;;;;5045113;28;20203;-70
2021/05/20 08:15:18;;;;;;;10.60;7.23;;;13.40;99.90;;;;;;5043079;28;20254;-70
2021/05/20 08:17:45;;;;;;;9.60;7.23;;;13.60;99.90;;;;;;5040013;28;20464;-71
2021/05/20 08:20:12;;;;;;;10.90;7.90;;;13.80;99.90;;;;;;5051782;28;20261;-71
2021/05/20 08:22:38;;;;;;;11.07;7.93;;;14.00;99.90;;;;;;5052482;28;20207;-71
2021/05/20 08:25:09;;;;;;;9.47;7.20;;;14.10;99.90;;;;;;5051693;28;20195;-71
2021/05/20 08:27:36;;;;;;;11.67;6.87;;;14.00;99.90;;;;;;5051523;28;20203;-71
2021/05/20 08:30:04;;;;;;;9.60;6.30;;;14.20;99.90;;;;;;5035119;28;20333;-71
2021/05/20 08:32:30;;;;;;;8.77;6.50;;;14.30;99.90;;;;;;5051832;28;20206;-71
2021/05/20 08:34:56;;;;;;;7.73;5.67;;;14.70;99.90;;;;;;5052227;28;20217;-71
2021/05/20 08:37:23;;;;;;;9.70;6.47;;;14.80;99.90;;;;;;5051764;28;20831;-71
2021/05/20 08:39:49;;;;;;;9.67;6.53;;;14.60;99.90;;;;;;5051991;28;20289;-71
2021/05/20 08:42:16;;;;;;;7.53;5.43;;;14.50;99.90;;;;;;5051253;28;20207;-71
2021/05/20 08:44:43;;;;;;;8.57;4.37;;;15.00;99.90;;;;;;5047274;28;20205;-71
2021/05/20 08:47:11;;;;;;;5.93;4.60;;;15.20;99.90;;;;;;5049644;28;20202;-71
2021/05/20 08:49:37;;;;;;;7.10;4.73;;;15.30;99.90;;;;;;5050101;28;20209;-71
2021/05/20 08:52:04;;;;;;;8.47;5.73;;;14.60;99.90;;;;;;5051901;28;20290;-71
2021/05/20 08:54:31;;;;;;;6.53;4.87;;;14.60;99.90;;;;;;5051437;28;20600;-71
2021/05/20 08:56:57;;;;;;;8.17;5.17;;;14.80;99.90;;;;;;5051251;28;20244;-71
2021/05/20 08:59:26;;;;;;;9.20;4.80;;;15.30;99.90;;;;;;5051592;28;20209;-71
2021/05/20 09:01:52;;;;;;;6.57;4.63;;;15.20;99.90;;;;;;5051905;28;20218;-71
2021/05/20 09:04:22;;;;;;;5.17;4.10;;;15.90;99.90;;;;;;5051263;28;20657;-71
2021/05/20 09:06:51;;;;;;;4.50;3.83;;;16.60;99.90;;;;;;5051957;28;20313;-71
2021/05/20 09:09:19;;;;;;;6.25;3.83;;;16.90;99.90;;;;;;5051503;28;20280;-71
2021/05/20 09:11:50;;;;;;;6.50;3.85;;;16.40;99.90;;;;;;5051255;28;20198;-71
2021/05/20 09:14:32;;;;;;;4.55;3.45;;;16.60;99.90;;;;;;5031715;28;20207;-71
2021/05/20 09:17:12;;;;;;;7.15;4.25;;;17.30;99.90;;;;;;5031983;28;20237;-71
2021/05/20 09:19:38;;;;;;;6.43;4.40;;;17.60;99.90;;;;;;5036302;28;20213;-71
2021/05/20 09:22:07;;;;;;;7.40;4.72;;;16.60;99.90;;;;;;5051756;28;20581;-71
2021/05/20 09:24:46;;;;;;;4.63;4.03;;;16.30;99.90;;;;;;5051384;28;20297;-71
2021/05/20 09:27:31;;;;;;;6.78;4.20;;;17.00;99.90;;;;;;5042241;28;20206;-71
2021/05/20 09:30:23;;;;;;;5.90;3.95;;;17.80;99.90;;;;;;5051249;28;20195;-71
2021/05/20 09:32:52;;;;;;;6.72;4.10;;;17.40;99.90;;;;;;5031890;28;20665;-71
2021/05/20 09:35:20;;;;;;;6.03;4.20;;;16.80;99.90;;;;;;5051575;28;20210;-71
2021/05/20 09:38:03;;;;;;;4.35;3.58;;;16.30;99.90;;;;;;5051215;28;20314;-71
2021/05/20 09:40:33;;;;;;;3.85;3.13;;;16.40;99.90;;;;;;5048713;28;20250;-71
2021/05/20 09:42:59;;;;;;;4.32;3.70;;;16.40;99.90;;;;;;5050578;28;20337;-71
2021/05/20 09:45:28;;;;;;;3.97;3.40;;;16.70;99.90;;;;;;5050983;28;20245;-71
2021/05/20 09:48:13;;;;;;;6.78;3.72;;;17.50;99.90;;;;;;5050641;28;20207;-71
2021/05/20 09:50:42;;;;;;;5.22;3.53;;;17.50;99.90;;;;;;5051408;28;20195;-71
2021/05/20 09:53:10;;;;;;;8.52;5.03;;;17.80;99.90;;;;;;5050982;28;20203;-71
2021/05/20 09:55:43;;;;;;;8.25;5.07;;;17.60;99.90;;;;;;5051735;28;20209;-71
2021/05/20 09:58:10;;;;;;;7.53;4.57;;;17.60;99.90;;;;;;5054926;28;20203;-71
2021/05/20 10:00:38;;;;;;;4.43;3.25;;;17.50;99.90;;;;;;5054325;28;20226;-71
2021/05/20 10:03:06;;;;;;;6.55;3.35;;;17.80;99.90;;;;;;5055014;28;20206;-71
2021/05/20 10:05:34;;;;;;;3.00;2.67;;;17.90;99.90;;;;;;5054895;28;20207;-71
2021/05/20 10:08:03;;;;;;;3.60;2.47;;;18.50;99.90;;;;;;5054691;28;20443;-71
2021/05/20 10:10:30;;;;;;;2.80;2.60;;;19.00;99.90;;;;;;5054625;28;20200;-71
2021/05/20 10:12:56;;;;;;;2.90;2.70;;;18.80;99.90;;;;;;5054204;28;20195;-71
2021/05/20 10:15:24;;;;;;;3.83;2.67;;;18.70;99.90;;;;;;5054649;28;20205;-71
2021/05/20 10:17:52;;;;;;;3.60;3.05;;;19.10;99.90;;;;;;5054751;28;20703;-71
2021/05/20 10:20:20;;;;;;;4.15;3.25;;;18.90;99.90;;;;;;5047046;28;20214;-71
2021/05/20 10:22:48;;;;;;;4.60;4.00;;;18.60;99.90;;;;;;5051859;28;20209;-71
2021/05/20 10:25:15;;;;;;;4.68;4.13;;;19.20;99.90;;;;;;5053269;28;20218;-71
2021/05/20 10:27:42;;;;;;;5.07;3.90;;;18.70;99.90;;;;;;5054509;28;20290;-71
2021/05/20 10:30:11;;;;;;;6.88;4.78;;;19.50;99.90;;;;;;5054394;28;20561;-71
2021/05/20 10:32:43;;;;;;;6.43;4.65;;;19.50;99.90;;;;;;5054414;28;20199;-71
2021/05/20 10:35:12;;;;;;;5.50;4.10;;;19.40;99.90;;;;;;5042783;28;20535;-71
2021/05/20 10:37:40;;;;;;;7.10;4.75;;;19.20;99.90;;;;;;5034543;28;20229;-71
2021/05/20 10:40:13;;;;;;;4.90;4.40;;;19.30;99.90;;;;;;5034383;28;20203;-71
2021/05/20 10:42:42;;;;;;;6.50;4.22;;;19.80;99.90;;;;;;5041158;28;20203;-71
2021/05/20 10:45:16;;;;;;;5.13;4.32;;;19.80;99.90;;;;;;5054095;28;20260;-71
2021/05/20 10:48:16;;;;;;;5.28;3.80;;;19.90;99.90;;;;;;5053196;28;20193;-71
2021/05/20 10:51:04;;;;;;;5.93;3.85;;;19.90;99.90;;;;;;5054155;28;20583;-71
2021/05/20 10:53:53;;;;;;;5.72;3.83;;;19.00;99.90;;;;;;5053935;28;20207;-71
2021/05/20 10:56:54;;;;;;;5.95;4.05;;;19.60;99.90;;;;;;5053118;28;20238;-71
2021/05/20 10:59:48;;;;;;;7.75;5.03;;;19.90;99.90;;;;;;5036142;28;20203;-72
2021/05/20 11:02:54;;;;;;;5.30;4.18;;;19.60;99.90;;;;;;5046348;28;20309;-71
2021/05/20 11:06:01;;;;;;;5.68;4.05;;;19.60;99.90;;;;;;5047088;28;20217;-71
2021/05/20 11:08:55;;;;;;;5.25;3.83;;;19.20;99.90;;;;;;5025864;28;20211;-71
2021/05/20 11:11:25;;;;;;;4.72;3.90;;;19.00;99.90;;;;;;5028336;28;20206;-71
2021/05/20 11:13:51;;;;;;;5.57;3.35;;;19.00;99.90;;;;;;5031815;28;20615;-71
2021/05/20 11:16:18;;;;;;;4.45;3.15;;;19.50;99.90;;;;;;5047710;28;20591;-71
2021/05/20 11:18:47;;;;;;;4.28;3.65;;;20.30;99.90;;;;;;5050395;28;20213;-72
2021/05/20 11:21:14;;;;;;;3.15;2.83;;;19.00;99.90;;;;;;5049141;28;20219;-72
2021/05/20 11:23:41;;;;;;;3.20;2.42;;;18.60;99.90;;;;;;5049353;28;20203;-71
2021/05/20 11:26:25;;;;;;;2.97;2.28;;;19.00;99.90;;;;;;5050115;28;20217;-71
2021/05/20 11:29:01;;;;;;;3.22;2.53;;;18.90;99.90;;;;;;5049421;28;20286;-72
2021/05/20 11:31:28;;;;;;;3.08;2.35;;;18.30;99.90;;;;;;5032002;28;20256;-71
2021/05/20 11:34:04;;;;;;;2.92;2.65;;;18.00;99.90;;;;;;5049437;28;20223;-71
2021/05/20 11:36:39;;;;;;;3.25;2.50;;;17.20;99.90;;;;;;5048857;28;20252;-71
2021/05/20 11:39:09;;;;;;;3.20;2.90;;;16.70;99.90;;;;;;5049796;28;20206;-71
2021/05/20 11:41:36;;;;;;;6.97;2.75;;;16.90;99.90;;;;;;5052228;28;20219;-71
2021/05/20 11:44:11;;;;;;;2.75;2.55;;;16.70;99.90;;;;;;5038559;28;20249;-71
2021/05/20 11:46:38;;;;;;;2.85;2.53;;;17.20;99.90;;;;;;5029857;28;20250;-71
2021/05/20 11:49:18;;;;;;;3.05;2.75;;;17.40;99.90;;;;;;5029028;28;20208;-72
2021/05/20 11:51:47;;;;;;;4.30;3.20;;;18.50;99.90;;;;;;5039910;28;20214;-72
2021/05/20 11:54:16;;;;;;;5.47;2.80;;;19.10;99.90;;;;;;5045761;28;20210;-72
2021/05/20 11:56:48;;;;;;;6.13;3.35;;;19.30;99.90;;;;;;5039136;28;20213;-72
2021/05/20 11:59:15;;;;;;;3.47;3.17;;;19.70;99.90;;;;;;5040350;28;20210;-72
2021/05/20 12:01:43;;;;;;;3.90;3.50;;;19.90;99.90;;;;;;5044828;28;20747;-72
2021/05/20 12:04:10;;;;;;;5.72;3.83;;;19.10;99.90;;;;;;5047256;28;20210;-72
2021/05/20 12:06:37;;;;;;;11.25;6.55;;;18.80;99.90;;;;;;5047597;28;20302;-71
2021/05/20 12:09:21;;;;;;;6.63;3.47;;;18.70;99.90;;;;;;5047884;28;20571;-72
2021/05/20 12:11:49;;;;;;;6.20;3.15;;;19.20;99.90;;;;;;5047861;28;20276;-72
2021/05/20 12:14:28;;;;;;;5.00;3.42;;;19.80;99.90;;;;;;5040786;28;20268;-72
2021/05/20 12:17:06;;;;;;;4.25;3.20;;;19.70;99.90;;;;;;5042180;28;20215;-71
2021/05/20 12:19:35;;;;;;;3.95;2.47;;;19.50;99.90;;;;;;5047583;28;20230;-72
2021/05/20 12:22:08;;;;;;;5.65;2.05;;;19.90;99.90;;;;;;5048684;28;20226;-72
2021/05/20 12:24:35;;;;;;;3.10;2.58;;;20.50;99.90;;;;;;5048838;28;20203;-72
2021/05/20 12:27:18;;;;;;;3.00;2.70;;;21.10;99.90;;;;;;5048025;28;20738;-71
2021/05/20 12:29:45;;;;;;;2.63;2.30;;;21.00;99.90;;;;;;5010395;28;20203;-71
2021/05/20 12:32:26;;;;;;;3.03;2.30;;;20.90;99.90;;;;;;5045337;28;20198;-71
2021/05/20 12:35:07;;;;;;;4.03;2.50;;;19.90;99.90;;;;;;5048207;28;20249;-71
2021/05/20 12:37:40;;;;;;;4.18;2.60;;;19.90;99.90;;;;;;5030222;28;20463;-71
2021/05/20 12:40:10;;;;;;;2.47;2.28;;;19.60;99.90;;;;;;5047860;28;20211;-72
2021/05/20 12:42:38;;;;;;;4.57;2.47;;;19.80;99.90;;;;;;5048398;28;20198;-72
2021/05/20 12:45:05;;;;;;;3.40;2.67;;;20.10;99.90;;;;;;5048442;28;20424;-71
2021/05/20 12:47:44;;;;;;;2.88;2.28;;;20.50;99.90;;;;;;5047727;28;20607;-71
2021/05/20 12:50:11;;;;;;;3.50;2.40;;;20.40;99.90;;;;;;5029363;28;20203;-72
2021/05/20 12:52:51;;;;;;;2.58;2.38;;;20.60;99.90;;;;;;5048137;28;20657;-72
2021/05/20 12:55:18;;;;;;;5.70;2.70;;;20.20;99.90;;;;;;5048259;28;20666;-72
2021/05/20 12:58:00;;;;;;;2.22;2.03;;;20.30;99.90;;;;;;5045837;28;20199;-72
2021/05/20 13:00:27;;;;;;;2.88;2.00;;;20.40;99.90;;;;;;5046633;28;20223;-71
2021/05/20 13:03:01;;;;;;;3.35;2.10;;;20.10;99.90;;;;;;5047298;28;20215;-71